Time;durP1;ratioP1;P1;durP2;ratioP2;P2;SDS_P1;SDS_P2;PMS_P1;PMS_P2;Temp;Humidity;BMP_temperature;BMP_pressure;BME280_temperature;BME280_humidity;BME280_pressure;Samples;Min_cycle;Max_cycle;Signal;HPM_P1;HPM_P2
2023/12/16 00:00:20;;;;;;;13.67;8.03;;;;;21.30;102742.00;;;;2071407;28;20292;-70
2023/12/16 00:01:20;;;;;;;10.47;7.83;;;;;21.30;102735.00;;;;2080141;28;20275;-70
2023/12/16 00:02:20;;;;;;;10.17;7.60;;;;;21.30;102747.00;;;;2077409;28;20241;-70
2023/12/16 00:03:21;;;;;;;10.47;7.37;;;;;21.30;102742.00;;;;2079672;28;20228;-70
2023/12/16 00:04:21;;;;;;;10.90;7.83;;;;;21.30;102742.00;;;;2080787;28;20224;-70
2023/12/16 00:05:22;;;;;;;9.57;7.27;;;;;21.30;102741.00;;;;2070344;28;20483;-70
2023/12/16 00:06:23;;;;;;;11.27;7.03;;;;;21.30;102727.00;;;;2080923;28;20209;-70
2023/12/16 00:07:23;;;;;;;12.45;7.78;;;;;21.30;102736.00;;;;2080699;28;20708;-70
2023/12/16 00:08:24;;;;;;;11.17;6.80;;;;;21.30;102736.00;;;;2080015;28;20221;-70
2023/12/16 00:09:24;;;;;;;10.93;7.30;;;;;21.30;102732.00;;;;2080379;28;20213;-70
2023/12/16 00:10:24;;;;;;;10.50;7.83;;;;;21.30;102734.00;;;;2068911;28;20624;-70
2023/12/16 00:11:25;;;;;;;12.40;8.83;;;;;21.30;102747.00;;;;2079554;28;20731;-70
2023/12/16 00:12:25;;;;;;;14.33;8.37;;;;;21.30;102713.00;;;;2078306;28;20222;-70
2023/12/16 00:13:25;;;;;;;11.03;7.67;;;;;21.30;102741.00;;;;2079942;28;20275;-70
2023/12/16 00:14:26;;;;;;;16.97;8.03;;;;;21.30;102737.00;;;;2079419;28;20221;-70
2023/12/16 00:15:26;;;;;;;11.97;7.27;;;;;21.30;102735.00;;;;2069910;28;20214;-70
2023/12/16 00:16:26;;;;;;;12.90;7.67;;;;;21.20;102738.00;;;;2080795;28;20229;-70
2023/12/16 00:17:27;;;;;;;57.00;9.97;;;;;21.30;102738.00;;;;2079803;28;20225;-69
2023/12/16 00:18:28;;;;;;;29.23;8.50;;;;;21.30;102741.00;;;;2080487;28;20301;-69
2023/12/16 00:19:29;;;;;;;16.03;7.40;;;;;21.30;102742.00;;;;2079866;28;20216;-70
2023/12/16 00:20:29;;;;;;;11.77;6.50;;;;;21.30;102743.00;;;;2073514;28;20495;-70
2023/12/16 00:21:30;;;;;;;13.97;7.93;;;;;21.30;102738.00;;;;2080502;28;20225;-70
2023/12/16 00:22:30;;;;;;;20.30;7.33;;;;;21.30;102683.00;;;;2079479;28;21804;-71
2023/12/16 00:23:30;;;;;;;14.10;6.70;;;;;21.30;102564.00;;;;2078988;28;20245;-71
2023/12/16 00:24:31;;;;;;;11.80;6.27;;;;;21.30;102736.00;;;;2077143;28;20221;-70
2023/12/16 00:25:31;;;;;;;14.17;6.80;;;;;21.20;102741.00;;;;2061924;28;20715;-70
2023/12/16 00:26:31;;;;;;;13.63;6.63;;;;;21.30;102728.00;;;;2078187;28;20214;-70
2023/12/16 00:27:32;;;;;;;11.73;6.67;;;;;21.20;102733.00;;;;2080595;28;20213;-70
2023/12/16 00:28:32;;;;;;;10.27;6.40;;;;;21.20;102728.00;;;;2080066;28;20217;-70
2023/12/16 00:29:32;;;;;;;16.13;7.13;;;;;21.20;102735.00;;;;2079930;28;20214;-70
2023/12/16 00:30:33;;;;;;;13.30;7.00;;;;;21.20;102729.00;;;;2074124;28;20228;-70
2023/12/16 00:31:34;;;;;;;12.07;7.03;;;;;21.20;102728.00;;;;2086070;28;20244;-70
2023/12/16 00:32:34;;;;;;;8.90;5.83;;;;;21.20;102727.00;;;;2084349;28;20737;-70
2023/12/16 00:33:35;;;;;;;12.13;6.33;;;;;21.20;102725.00;;;;2080118;28;20488;-70
2023/12/16 00:34:35;;;;;;;10.57;6.73;;;;;21.20;102726.00;;;;2080097;28;20231;-70
2023/12/16 00:35:35;;;;;;;8.87;6.20;;;;;21.20;102704.00;;;;2066790;28;20621;-70
2023/12/16 00:36:36;;;;;;;12.33;6.27;;;;;21.20;102729.00;;;;2080233;28;20252;-70
2023/12/16 00:37:36;;;;;;;11.97;6.70;;;;;21.20;102724.00;;;;2080320;28;20218;-70
2023/12/16 00:38:36;;;;;;;11.50;6.37;;;;;21.20;102728.00;;;;2082696;28;20213;-70
2023/12/16 00:39:37;;;;;;;12.30;6.60;;;;;21.20;102725.00;;;;2081919;28;20214;-70
2023/12/16 00:40:38;;;;;;;8.17;6.10;;;;;21.20;102677.00;;;;2070091;28;20214;-70
2023/12/16 00:41:39;;;;;;;10.95;6.60;;;;;21.20;102726.00;;;;2082074;28;20217;-70
2023/12/16 00:42:39;;;;;;;8.17;5.67;;;;;21.20;102722.00;;;;2079924;28;20231;-70
2023/12/16 00:43:39;;;;;;;12.63;6.10;;;;;21.20;102718.00;;;;2080294;28;20476;-70
2023/12/16 00:44:40;;;;;;;9.60;6.20;;;;;21.20;102664.00;;;;2080420;28;20221;-70
2023/12/16 00:45:40;;;;;;;9.70;5.50;;;;;21.20;102722.00;;;;2068837;28;20221;-70
2023/12/16 00:46:40;;;;;;;10.13;6.20;;;;;21.20;102720.00;;;;2080286;28;20210;-69
2023/12/16 00:47:41;;;;;;;11.83;5.80;;;;;21.20;102721.00;;;;2079716;28;20291;-70
2023/12/16 00:48:41;;;;;;;9.43;5.50;;;;;21.20;102718.00;;;;2080399;28;20213;-70
2023/12/16 00:49:41;;;;;;;9.43;5.40;;;;;21.10;102720.00;;;;2079884;28;20217;-69
2023/12/16 00:50:42;;;;;;;8.10;5.80;;;;;21.20;102727.00;;;;2073718;28;20259;-70
2023/12/16 00:51:42;;;;;;;11.77;6.07;;;;;21.10;102717.00;;;;2081565;28;20217;-70
2023/12/16 00:52:43;;;;;;;12.80;5.90;;;;;21.10;102712.00;;;;2079708;28;20495;-70
2023/12/16 00:53:43;;;;;;;9.80;5.80;;;;;21.10;102721.00;;;;2080587;28;20688;-70
2023/12/16 00:54:44;;;;;;;8.70;5.23;;;;;21.10;102720.00;;;;2079902;28;20232;-70
2023/12/16 00:55:44;;;;;;;10.30;5.90;;;;;21.10;102718.00;;;;2069562;28;20225;-70
2023/12/16 00:56:45;;;;;;;8.27;5.47;;;;;21.20;102718.00;;;;2080340;28;20704;-70
2023/12/16 00:57:45;;;;;;;9.07;5.95;;;;;21.10;102720.00;;;;2080823;28;20304;-70
2023/12/16 00:58:46;;;;;;;10.80;5.87;;;;;21.10;102725.00;;;;2079379;28;20221;-70
2023/12/16 00:59:46;;;;;;;8.57;6.13;;;;;21.10;102719.00;;;;2079677;28;20236;-70
2023/12/16 01:00:46;;;;;;;8.87;5.63;;;;;21.10;102709.00;;;;2068692;28;20225;-70
2023/12/16 01:01:47;;;;;;;10.40;5.67;;;;;21.10;102715.00;;;;2078969;28;20217;-70
2023/12/16 01:02:47;;;;;;;8.30;5.43;;;;;21.10;102628.00;;;;2079721;28;20226;-70
2023/12/16 01:03:47;;;;;;;11.90;5.43;;;;;21.10;102720.00;;;;2079513;28;20217;-70
2023/12/16 01:04:48;;;;;;;8.27;5.57;;;;;21.10;102723.00;;;;2079637;28;20244;-70
2023/12/16 01:05:48;;;;;;;9.50;6.20;;;;;21.10;102718.00;;;;2069614;28;20217;-70
2023/12/16 01:06:48;;;;;;;9.00;5.70;;;;;21.10;102717.00;;;;2080288;28;20226;-70
2023/12/16 01:07:49;;;;;;;10.20;5.57;;;;;21.10;102723.00;;;;2079856;28;20295;-70
2023/12/16 01:08:49;;;;;;;10.10;5.83;;;;;21.10;102693.00;;;;2078677;28;21081;-69
2023/12/16 01:09:51;;;;;;;8.03;5.10;;;;;21.10;102719.00;;;;2080244;28;20214;-69
2023/12/16 01:10:51;;;;;;;13.35;5.60;;;;;21.10;102725.00;;;;2069597;28;20243;-69
2023/12/16 01:11:51;;;;;;;7.73;4.90;;;;;21.10;102726.00;;;;2077955;28;20233;-69
2023/12/16 01:12:51;;;;;;;8.10;5.20;;;;;21.10;102719.00;;;;2075506;28;20245;-70
2023/12/16 01:13:52;;;;;;;8.53;5.10;;;;;21.10;102702.00;;;;2080279;28;20217;-70
2023/12/16 01:14:52;;;;;;;9.40;5.60;;;;;21.10;102491.00;;;;2079808;28;20209;-70
2023/12/16 01:15:52;;;;;;;9.57;5.83;;;;;21.10;102738.00;;;;2067989;28;20308;-70
2023/12/16 01:16:53;;;;;;;11.03;5.47;;;;;21.10;102735.00;;;;2079457;28;20221;-69
2023/12/16 01:17:53;;;;;;;9.10;5.50;;;;;21.10;102729.00;;;;2079644;28;20213;-70
2023/12/16 01:18:53;;;;;;;8.60;4.90;;;;;21.10;102727.00;;;;2079990;28;20210;-69
2023/12/16 01:19:54;;;;;;;10.17;4.60;;;;;21.10;102731.00;;;;2079118;28;20744;-69
2023/12/16 01:20:54;;;;;;;8.70;5.10;;;;;21.10;102731.00;;;;2076115;28;20220;-70
2023/12/16 01:21:54;;;;;;;7.83;4.47;;;;;21.10;102734.00;;;;2087344;28;20225;-70
2023/12/16 01:22:55;;;;;;;9.43;4.90;;;;;21.10;102731.00;;;;2080720;28;20237;-70
2023/12/16 01:23:55;;;;;;;7.57;4.50;;;;;21.10;102746.00;;;;2075683;28;20225;-70
2023/12/16 01:24:55;;;;;;;6.57;4.63;;;;;21.10;102745.00;;;;2081968;28;20221;-70
2023/12/16 01:25:56;;;;;;;7.40;5.00;;;;;21.10;102746.00;;;;2070406;28;20228;-70
2023/12/16 01:26:56;;;;;;;14.20;5.80;;;;;21.10;102755.00;;;;2079907;28;20576;-70
2023/12/16 01:27:56;;;;;;;9.13;4.70;;;;;21.10;102752.00;;;;2078121;28;20898;-70
2023/12/16 01:28:57;;;;;;;6.37;4.20;;;;;21.00;102750.00;;;;2079456;28;20702;-70
2023/12/16 01:29:57;;;;;;;10.00;4.90;;;;;21.10;102759.00;;;;2080068;28;20323;-70
2023/12/16 01:30:57;;;;;;;8.40;4.87;;;;;21.00;102754.00;;;;2069987;28;20221;-70
2023/12/16 01:31:58;;;;;;;11.30;4.90;;;;;21.00;102760.00;;;;2081583;28;20989;-70
2023/12/16 01:32:58;;;;;;;7.80;4.33;;;;;21.00;102752.00;;;;2079897;28;20259;-70
2023/12/16 01:33:58;;;;;;;8.30;5.40;;;;;21.00;102759.00;;;;2079733;28;20233;-70
2023/12/16 01:34:59;;;;;;;7.53;4.63;;;;;21.00;102755.00;;;;2080150;28;20263;-70
2023/12/16 01:35:59;;;;;;;6.90;4.80;;;;;21.00;102760.00;;;;2068858;28;20221;-69
2023/12/16 01:36:59;;;;;;;10.97;4.70;;;;;21.00;102759.00;;;;2072766;28;20228;-70
2023/12/16 01:38:00;;;;;;;8.73;4.60;;;;;21.00;102697.00;;;;2079672;28;20225;-70
2023/12/16 01:39:00;;;;;;;8.40;4.50;;;;;21.00;102759.00;;;;2079539;28;20279;-69
2023/12/16 01:40:01;;;;;;;9.37;4.77;;;;;21.00;102752.00;;;;2080101;28;20221;-70
2023/12/16 01:41:01;;;;;;;7.03;3.97;;;;;21.00;102756.00;;;;2069439;28;20236;-69
2023/12/16 01:42:02;;;;;;;7.33;4.73;;;;;21.00;102753.00;;;;2079019;28;20253;-70
2023/12/16 01:43:10;;;;;;;8.43;4.33;;;;;21.00;102765.00;;;;2079444;28;20803;-70
2023/12/16 01:44:10;;;;;;;9.00;4.00;;;;;21.00;102759.00;;;;2079689;28;20226;-70
2023/12/16 01:45:11;;;;;;;7.23;3.70;;;;;21.00;102754.00;;;;2070559;28;20548;-70
2023/12/16 01:46:11;;;;;;;8.23;4.90;;;;;21.00;102755.00;;;;2079681;28;20213;-70
2023/12/16 01:47:12;;;;;;;8.10;4.63;;;;;21.00;102650.00;;;;2079021;28;20260;-69
2023/12/16 01:48:12;;;;;;;7.93;5.00;;;;;21.00;102752.00;;;;2071351;28;20240;-70
2023/12/16 01:49:12;;;;;;;7.73;4.60;;;;;21.00;102752.00;;;;2070962;28;20206;-70
2023/12/16 01:50:13;;;;;;;12.60;5.10;;;;;21.00;102760.00;;;;2069366;28;20206;-70
2023/12/16 01:51:13;;;;;;;8.17;4.80;;;;;21.00;102750.00;;;;2087553;28;20208;-70
2023/12/16 01:52:13;;;;;;;5.97;4.37;;;;;21.00;102741.00;;;;2086367;28;20236;-70
2023/12/16 01:53:14;;;;;;;7.30;4.50;;;;;21.00;102746.00;;;;2079039;28;20209;-70
2023/12/16 01:54:14;;;;;;;6.57;4.20;;;;;21.00;102744.00;;;;2080086;28;20213;-70
2023/12/16 01:55:14;;;;;;;6.30;4.30;;;;;21.00;102646.00;;;;2071008;28;20224;-70
2023/12/16 01:56:15;;;;;;;8.60;4.50;;;;;21.00;102736.00;;;;2070885;28;20238;-70
2023/12/16 01:57:15;;;;;;;5.40;3.90;;;;;21.00;102733.00;;;;2054157;28;20222;-70
2023/12/16 01:58:15;;;;;;;7.63;4.40;;;;;21.00;102738.00;;;;2061160;28;20223;-70
2023/12/16 01:59:16;;;;;;;6.40;4.40;;;;;21.00;102727.00;;;;2063649;28;20721;-70
2023/12/16 02:00:16;;;;;;;7.63;4.20;;;;;21.00;102727.00;;;;2058268;28;20215;-70
2023/12/16 02:01:16;;;;;;;9.50;4.23;;;;;21.00;102735.00;;;;2078880;28;20232;-70
2023/12/16 02:02:17;;;;;;;6.50;4.00;;;;;21.00;102638.00;;;;2084963;28;20232;-70
2023/12/16 02:03:18;;;;;;;8.10;4.10;;;;;21.00;102739.00;;;;2077846;28;20210;-70
2023/12/16 02:04:19;;;;;;;6.17;4.00;;;;;21.00;102739.00;;;;2070558;28;20449;-70
2023/12/16 02:05:19;;;;;;;6.07;3.90;;;;;21.00;102743.00;;;;2068613;28;20232;-70
2023/12/16 02:06:20;;;;;;;7.37;4.13;;;;;21.00;102739.00;;;;2079030;28;20206;-69
2023/12/16 02:07:20;;;;;;;5.20;4.00;;;;;21.00;102740.00;;;;2081705;28;20268;-70
2023/12/16 02:08:20;;;;;;;9.40;4.47;;;;;21.00;102743.00;;;;2078754;28;20452;-70
2023/12/16 02:09:21;;;;;;;5.47;4.10;;;;;21.00;102746.00;;;;2078856;28;20205;-69
2023/12/16 02:10:22;;;;;;;6.37;3.97;;;;;21.00;102748.00;;;;2071502;28;20201;-70
2023/12/16 02:11:22;;;;;;;7.93;4.33;;;;;20.90;102751.00;;;;2084836;28;20443;-70
2023/12/16 02:12:22;;;;;;;7.83;3.77;;;;;21.00;102753.00;;;;2080931;28;20211;-70
2023/12/16 02:13:23;;;;;;;9.63;4.50;;;;;20.90;102741.00;;;;2078924;28;20221;-70
2023/12/16 02:14:24;;;;;;;8.00;3.95;;;;;20.90;102730.00;;;;2075914;28;20198;-71
2023/12/16 02:15:24;;;;;;;5.20;3.90;;;;;20.90;102754.00;;;;2070298;28;20282;-70
2023/12/16 02:16:25;;;;;;;9.77;4.60;;;;;20.90;102757.00;;;;2076504;28;20217;-71
2023/12/16 02:17:25;;;;;;;11.37;4.40;;;;;20.90;102759.00;;;;2079073;28;20217;-71
2023/12/16 02:18:26;;;;;;;7.77;3.87;;;;;20.90;102747.00;;;;2078272;28;20216;-70
2023/12/16 02:19:26;;;;;;;6.73;3.73;;;;;20.90;102754.00;;;;2077422;28;20213;-71
2023/12/16 02:20:27;;;;;;;6.23;3.70;;;;;20.90;102754.00;;;;2072403;28;23372;-70
2023/12/16 02:21:27;;;;;;;9.37;3.67;;;;;20.90;102761.00;;;;2082863;28;20211;-70
2023/12/16 02:22:27;;;;;;;8.13;3.90;;;;;20.90;102756.00;;;;2083759;28;20193;-71
2023/12/16 02:23:28;;;;;;;11.63;3.50;;;;;21.00;102744.00;;;;2083521;28;20232;-72
2023/12/16 02:24:29;;;;;;;9.30;4.33;;;;;20.90;102754.00;;;;2083729;28;20206;-72
2023/12/16 02:25:29;;;;;;;7.38;3.83;;;;;20.90;102756.00;;;;2071780;28;20209;-72
2023/12/16 02:26:29;;;;;;;7.83;3.83;;;;;20.90;102749.00;;;;2087934;28;20229;-72
2023/12/16 02:27:30;;;;;;;9.77;3.73;;;;;20.90;102755.00;;;;2085022;28;20202;-71
2023/12/16 02:28:30;;;;;;;8.70;3.30;;;;;20.90;102758.00;;;;2079692;28;20270;-72
2023/12/16 02:29:31;;;;;;;8.87;3.27;;;;;20.90;102754.00;;;;2078534;28;20225;-72
2023/12/16 02:30:31;;;;;;;9.90;3.90;;;;;20.90;102749.00;;;;2075526;28;20224;-71
2023/12/16 02:31:31;;;;;;;9.03;3.90;;;;;20.90;102769.00;;;;2091447;28;20606;-72
2023/12/16 02:32:32;;;;;;;8.90;3.67;;;;;20.90;102760.00;;;;2081960;28;20685;-72
2023/12/16 02:33:32;;;;;;;5.80;3.73;;;;;20.90;102753.00;;;;2075429;28;20218;-71
2023/12/16 02:34:32;;;;;;;11.60;3.90;;;;;20.90;102757.00;;;;2079905;28;20217;-71
2023/12/16 02:35:33;;;;;;;6.50;3.30;;;;;20.80;102744.00;;;;2068028;28;20304;-72
2023/12/16 02:36:34;;;;;;;8.10;3.40;;;;;20.90;102744.00;;;;2078963;28;20229;-72
2023/12/16 02:37:34;;;;;;;10.70;5.00;;;;;20.90;102740.00;;;;2079342;28;20510;-72
2023/12/16 02:38:34;;;;;;;7.23;3.50;;;;;20.80;102741.00;;;;2080079;28;20297;-72
2023/12/16 02:39:35;;;;;;;9.30;3.70;;;;;20.80;102742.00;;;;2079325;28;20288;-69
2023/12/16 02:40:41;;;;;;;10.50;3.70;;;;;20.80;102745.00;;;;2075890;28;20627;-69
2023/12/16 02:41:42;;;;;;;8.27;3.55;;;;;20.80;102744.00;;;;2086982;28;20223;-69
2023/12/16 02:42:42;;;;;;;12.00;3.80;;;;;20.80;102751.00;;;;2080761;28;20216;-69
2023/12/16 02:43:42;;;;;;;7.50;3.40;;;;;20.80;102750.00;;;;2075563;28;20214;-69
2023/12/16 02:44:43;;;;;;;8.33;3.80;;;;;20.80;102753.00;;;;2079189;28;20244;-69
2023/12/16 02:45:43;;;;;;;7.80;4.00;;;;;20.80;102757.00;;;;2071413;28;20220;-69
2023/12/16 02:46:44;;;;;;;7.50;3.20;;;;;20.80;102750.00;;;;2079386;28;20217;-69
2023/12/16 02:47:44;;;;;;;7.33;3.83;;;;;20.80;102748.00;;;;2079030;28;20732;-73
2023/12/16 02:48:44;;;;;;;11.80;3.50;;;;;20.80;102739.00;;;;2079638;28;20674;-70
2023/12/16 02:49:45;;;;;;;9.00;3.30;;;;;20.80;102700.00;;;;2078754;28;20217;-70
2023/12/16 02:50:45;;;;;;;6.10;2.80;;;;;20.70;102748.00;;;;2068002;28;20241;-70
2023/12/16 02:51:45;;;;;;;8.90;3.50;;;;;20.70;102751.00;;;;2079374;28;20932;-70
2023/12/16 02:52:46;;;;;;;7.17;3.20;;;;;20.60;102747.00;;;;2079833;28;20263;-70
2023/12/16 02:53:46;;;;;;;8.47;3.37;;;;;20.70;102752.00;;;;2079209;28;20218;-69
2023/12/16 02:54:46;;;;;;;11.63;3.40;;;;;20.70;102753.00;;;;2079882;28;20210;-69
2023/12/16 02:55:47;;;;;;;7.67;3.43;;;;;20.70;102745.00;;;;2070279;28;20245;-69
2023/12/16 02:56:47;;;;;;;8.57;3.50;;;;;20.70;102743.00;;;;2078753;28;20564;-69
2023/12/16 02:57:47;;;;;;;6.87;3.60;;;;;20.70;102744.00;;;;2079771;28;21003;-69
2023/12/16 02:58:48;;;;;;;5.10;3.10;;;;;20.70;102743.00;;;;2077605;28;20701;-70
2023/12/16 02:59:49;;;;;;;6.13;2.95;;;;;20.70;102745.00;;;;2079158;28;20610;-69
2023/12/16 03:00:49;;;;;;;6.20;3.10;;;;;20.70;102741.00;;;;2069859;28;20306;-69
2023/12/16 03:01:49;;;;;;;5.07;2.87;;;;;20.70;102737.00;;;;2079828;28;20225;-69
2023/12/16 03:02:50;;;;;;;6.57;3.00;;;;;20.70;102742.00;;;;2079894;28;20221;-69
2023/12/16 03:03:50;;;;;;;8.77;3.90;;;;;20.70;102744.00;;;;2077009;28;20214;-69
2023/12/16 03:04:52;;;;;;;5.20;3.00;;;;;20.70;102738.00;;;;2078469;28;20244;-70
2023/12/16 03:05:52;;;;;;;5.55;3.95;;;;;20.70;102732.00;;;;2069295;28;20712;-69
2023/12/16 03:06:52;;;;;;;9.03;3.57;;;;;20.60;102739.00;;;;2079518;28;20224;-69
2023/12/16 03:07:53;;;;;;;7.50;3.07;;;;;20.70;102745.00;;;;2079727;28;20594;-69
2023/12/16 03:08:53;;;;;;;7.30;3.70;;;;;20.70;102736.00;;;;2074622;28;20685;-69
2023/12/16 03:09:53;;;;;;;4.93;3.20;;;;;20.60;102733.00;;;;2085141;28;20765;-70
2023/12/16 03:10:54;;;;;;;7.23;3.00;;;;;20.60;102739.00;;;;2078864;28;20209;-69
2023/12/16 03:11:55;;;;;;;6.47;3.00;;;;;20.70;102739.00;;;;2081661;28;20247;-69
2023/12/16 03:12:55;;;;;;;9.87;2.97;;;;;20.70;102737.00;;;;2081956;28;20283;-69
2023/12/16 03:13:56;;;;;;;5.23;3.10;;;;;20.60;102685.00;;;;2080337;28;20214;-69
2023/12/16 03:14:56;;;;;;;6.63;2.83;;;;;20.60;102732.00;;;;2080952;28;20241;-69
2023/12/16 03:15:57;;;;;;;6.83;3.17;;;;;20.60;102732.00;;;;2070699;28;20213;-69
2023/12/16 03:16:57;;;;;;;8.43;2.97;;;;;20.60;102728.00;;;;2081200;28;20213;-69
2023/12/16 03:17:57;;;;;;;7.07;3.20;;;;;20.60;102725.00;;;;2081191;28;20705;-69
2023/12/16 03:18:58;;;;;;;5.50;2.93;;;;;20.60;102735.00;;;;2080553;28;20247;-69
2023/12/16 03:19:58;;;;;;;7.37;3.27;;;;;20.60;102729.00;;;;2081267;28;20689;-69
2023/12/16 03:20:58;;;;;;;7.50;2.67;;;;;20.60;102699.00;;;;2072263;28;20233;-69
2023/12/16 03:21:59;;;;;;;7.17;3.23;;;;;20.60;102725.00;;;;2081868;28;20252;-69
2023/12/16 03:22:59;;;;;;;4.47;2.60;;;;;20.60;102734.00;;;;2080297;28;20222;-69
2023/12/16 03:23:59;;;;;;;5.00;2.60;;;;;20.60;102734.00;;;;2077890;28;20271;-69
2023/12/16 03:25:00;;;;;;;5.63;3.00;;;;;20.60;102728.00;;;;2081190;28;20221;-69
2023/12/16 03:26:00;;;;;;;5.33;2.97;;;;;20.60;102738.00;;;;2070875;28;20276;-69
2023/12/16 03:27:00;;;;;;;7.27;3.20;;;;;20.60;102732.00;;;;2078032;28;20217;-69
2023/12/16 03:28:02;;;;;;;7.63;2.80;;;;;20.60;102725.00;;;;2080781;28;20231;-69
2023/12/16 03:29:02;;;;;;;5.03;2.70;;;;;20.60;102731.00;;;;2080999;28;20201;-69
2023/12/16 03:30:03;;;;;;;8.33;3.40;;;;;20.50;102721.00;;;;2080415;28;20218;-69
2023/12/16 03:31:04;;;;;;;7.37;2.70;;;;;20.60;102725.00;;;;2071492;28;20271;-69
2023/12/16 03:32:04;;;;;;;6.17;2.70;;;;;20.60;102717.00;;;;2077962;28;20975;-69
2023/12/16 03:33:04;;;;;;;7.30;2.90;;;;;20.50;102719.00;;;;2079701;28;20221;-69
2023/12/16 03:34:05;;;;;;;8.73;2.80;;;;;20.60;102721.00;;;;2080980;28;20210;-69
2023/12/16 03:35:06;;;;;;;9.30;2.83;;;;;20.60;102717.00;;;;2073735;28;20223;-69
2023/12/16 03:36:09;;;;;;;4.90;2.63;;;;;20.50;102716.00;;;;2071393;28;20688;-69
2023/12/16 03:37:10;;;;;;;5.43;2.45;;;;;20.50;102711.00;;;;2080279;28;20536;-69
2023/12/16 03:38:10;;;;;;;5.47;2.30;;;;;20.50;102703.00;;;;2081096;28;20240;-69
2023/12/16 03:39:11;;;;;;;6.23;2.67;;;;;20.60;102712.00;;;;2079835;28;20464;-69
2023/12/16 03:40:11;;;;;;;5.80;2.60;;;;;20.50;102701.00;;;;2067974;28;20689;-69
2023/12/16 03:41:12;;;;;;;4.00;2.53;;;;;20.50;102698.00;;;;2086314;28;20205;-69
2023/12/16 03:42:12;;;;;;;5.50;2.70;;;;;20.50;102713.00;;;;2087226;28;20228;-69
2023/12/16 03:43:15;;;;;;;5.03;2.73;;;;;20.50;102708.00;;;;2080985;28;20328;-68
2023/12/16 03:44:15;;;;;;;9.25;3.28;;;;;20.50;102707.00;;;;2080491;28;20641;-69
2023/12/16 03:45:15;;;;;;;5.27;2.00;;;;;20.50;102704.00;;;;2070799;28;20205;-69
2023/12/16 03:46:17;;;;;;;5.33;2.50;;;;;20.50;102708.00;;;;2079008;28;20283;-69
2023/12/16 03:47:17;;;;;;;7.45;2.70;;;;;20.50;102709.00;;;;2079770;28;20217;-69
2023/12/16 03:48:17;;;;;;;5.83;2.77;;;;;20.50;102707.00;;;;2081047;28;20217;-69
2023/12/16 03:49:18;;;;;;;6.27;2.57;;;;;20.50;102703.00;;;;2077979;28;20216;-69
2023/12/16 03:50:18;;;;;;;4.43;2.50;;;;;20.50;102715.00;;;;2071408;28;20240;-69
2023/12/16 03:51:21;;;;;;;7.10;3.07;;;;;20.50;102714.00;;;;2080891;28;20709;-69
2023/12/16 03:52:21;;;;;;;7.40;2.60;;;;;20.50;102714.00;;;;2079520;28;20212;-70
2023/12/16 03:53:22;;;;;;;6.50;2.50;;;;;20.50;102717.00;;;;2076573;28;20232;-70
2023/12/16 03:54:22;;;;;;;6.00;2.93;;;;;20.50;102715.00;;;;2080524;28;20259;-70
2023/12/16 03:55:23;;;;;;;4.33;2.63;;;;;20.50;102715.00;;;;2070375;28;20802;-69
2023/12/16 03:56:23;;;;;;;5.50;2.60;;;;;20.50;102709.00;;;;2078914;28;20233;-69
2023/12/16 03:57:23;;;;;;;6.30;2.93;;;;;20.40;102716.00;;;;2080515;28;20216;-69
2023/12/16 03:58:23;;;;;;;7.00;2.40;;;;;20.50;102713.00;;;;2081067;28;20198;-69
2023/12/16 03:59:24;;;;;;;6.70;2.63;;;;;20.40;102711.00;;;;2082951;28;20231;-69
2023/12/16 04:00:24;;;;;;;4.67;2.40;;;;;20.40;102717.00;;;;2071083;28;20573;-69
2023/12/16 04:01:24;;;;;;;5.70;2.43;;;;;20.40;102712.00;;;;2080542;28;20608;-69
2023/12/16 04:02:25;;;;;;;6.37;2.80;;;;;20.50;102717.00;;;;2080548;28;20711;-69
2023/12/16 04:03:25;;;;;;;4.80;2.77;;;;;20.40;102729.00;;;;2080844;28;20705;-69
2023/12/16 04:04:26;;;;;;;8.00;3.37;;;;;20.40;102712.00;;;;2080823;28;20244;-69
2023/12/16 04:05:26;;;;;;;8.87;3.07;;;;;20.40;102721.00;;;;2068088;28;20209;-69
2023/12/16 04:06:26;;;;;;;7.97;2.27;;;;;20.40;102720.00;;;;2080939;28;20216;-69
2023/12/16 04:07:27;;;;;;;5.73;2.63;;;;;20.40;102664.00;;;;2079866;28;20212;-69
2023/12/16 04:08:27;;;;;;;5.63;2.77;;;;;20.40;102723.00;;;;2080812;28;20557;-70
2023/12/16 04:09:28;;;;;;;4.80;2.33;;;;;20.40;102724.00;;;;2079932;28;20618;-69
2023/12/16 04:10:28;;;;;;;5.47;2.60;;;;;20.40;102719.00;;;;2069691;28;23333;-69
2023/12/16 04:11:28;;;;;;;5.53;1.90;;;;;20.40;102724.00;;;;2080837;28;20213;-70
2023/12/16 04:12:29;;;;;;;4.87;2.97;;;;;20.40;102724.00;;;;2077189;28;20214;-69
2023/12/16 04:13:29;;;;;;;4.30;2.23;;;;;20.40;102678.00;;;;2080240;28;20212;-69
2023/12/16 04:14:29;;;;;;;6.20;2.37;;;;;20.40;102724.00;;;;2079057;28;20233;-69
2023/12/16 04:15:30;;;;;;;6.33;2.40;;;;;20.40;102727.00;;;;2071219;28;20221;-69
2023/12/16 04:16:30;;;;;;;6.80;2.87;;;;;20.40;102729.00;;;;2080267;28;20209;-69
2023/12/16 04:17:30;;;;;;;4.73;2.27;;;;;20.40;102736.00;;;;2078141;28;20222;-69
2023/12/16 04:18:32;;;;;;;5.17;2.10;;;;;20.40;102730.00;;;;2079184;28;20198;-69
2023/12/16 04:19:32;;;;;;;4.75;1.73;;;;;20.40;102723.00;;;;2080012;28;20212;-69
2023/12/16 04:20:33;;;;;;;5.90;2.50;;;;;20.40;102728.00;;;;2070844;28;20241;-69
2023/12/16 04:21:33;;;;;;;7.53;2.40;;;;;20.40;102723.00;;;;2080299;28;20206;-69
2023/12/16 04:22:33;;;;;;;5.23;2.40;;;;;20.40;102719.00;;;;2080837;28;20259;-69
2023/12/16 04:23:34;;;;;;;4.93;2.53;;;;;20.40;102703.00;;;;2079625;28;20210;-69
2023/12/16 04:24:34;;;;;;;4.33;2.03;;;;;20.40;102723.00;;;;2080633;28;20547;-69
2023/12/16 04:25:34;;;;;;;4.87;2.47;;;;;20.40;102721.00;;;;2074230;28;20240;-69
2023/12/16 04:26:35;;;;;;;4.67;2.00;;;;;20.40;102717.00;;;;2087682;28;20201;-69
2023/12/16 04:27:35;;;;;;;5.03;2.60;;;;;20.40;102724.00;;;;2084857;28;20202;-69
2023/12/16 04:28:36;;;;;;;6.33;2.30;;;;;20.40;102724.00;;;;2078111;28;20198;-69
2023/12/16 04:29:36;;;;;;;5.70;2.37;;;;;20.40;102671.00;;;;2080444;28;20228;-69
2023/12/16 04:30:37;;;;;;;4.23;2.27;;;;;20.40;102717.00;;;;2070722;28;20500;-69
2023/12/16 04:31:38;;;;;;;5.20;2.17;;;;;20.40;102720.00;;;;2080808;28;20229;-69
2023/12/16 04:32:39;;;;;;;5.47;2.17;;;;;20.40;102719.00;;;;2080318;28;20514;-69
2023/12/16 04:33:39;;;;;;;4.67;2.47;;;;;20.30;102714.00;;;;2081643;28;20247;-69
2023/12/16 04:34:39;;;;;;;4.50;2.40;;;;;20.30;102717.00;;;;2080659;28;20197;-69
2023/12/16 04:35:40;;;;;;;4.57;2.43;;;;;20.30;102710.00;;;;2070344;28;20218;-69
2023/12/16 04:36:40;;;;;;;7.57;2.70;;;;;20.30;102716.00;;;;2080579;28;20308;-69
2023/12/16 04:37:40;;;;;;;5.73;2.33;;;;;20.30;102716.00;;;;2080017;28;20210;-69
2023/12/16 04:38:41;;;;;;;4.80;2.40;;;;;20.30;102719.00;;;;2079200;28;20213;-69
2023/12/16 04:39:41;;;;;;;3.90;1.60;;;;;20.30;102711.00;;;;2077534;28;20284;-69
2023/12/16 04:40:41;;;;;;;5.33;2.30;;;;;20.30;102718.00;;;;2069567;28;20216;-69
2023/12/16 04:41:42;;;;;;;6.03;2.23;;;;;20.30;102722.00;;;;2080205;28;20209;-69
2023/12/16 04:42:42;;;;;;;7.17;2.40;;;;;20.30;102717.00;;;;2079469;28;20240;-69
2023/12/16 04:43:42;;;;;;;4.63;2.23;;;;;20.30;102717.00;;;;2079839;28;20214;-69
2023/12/16 04:44:43;;;;;;;7.53;2.47;;;;;20.30;102725.00;;;;2079419;28;20217;-69
2023/12/16 04:45:43;;;;;;;4.80;2.20;;;;;20.30;102725.00;;;;2071023;28;20213;-69
2023/12/16 04:46:43;;;;;;;4.93;2.43;;;;;20.30;102724.00;;;;2079385;28;20225;-69
2023/12/16 04:47:44;;;;;;;4.67;2.27;;;;;20.30;102712.00;;;;2080044;28;20704;-69
2023/12/16 04:48:44;;;;;;;4.73;2.40;;;;;20.30;102738.00;;;;2078426;28;20214;-69
2023/12/16 04:49:44;;;;;;;4.37;2.13;;;;;20.30;102730.00;;;;2080192;28;20236;-69
2023/12/16 04:50:45;;;;;;;6.07;2.67;;;;;20.30;102743.00;;;;2065504;28;20225;-69
2023/12/16 04:51:45;;;;;;;4.57;2.50;;;;;20.30;102743.00;;;;2080097;28;20229;-69
2023/12/16 04:52:46;;;;;;;6.20;2.83;;;;;20.30;102700.00;;;;2078499;28;20245;-69
2023/12/16 04:53:47;;;;;;;6.43;2.45;;;;;20.30;102727.00;;;;2080468;28;20217;-69
2023/12/16 04:54:47;;;;;;;8.13;2.40;;;;;20.30;102731.00;;;;2079557;28;20229;-69
2023/12/16 04:55:47;;;;;;;5.27;2.07;;;;;20.30;102730.00;;;;2069350;28;20247;-69
2023/12/16 04:56:48;;;;;;;4.07;2.17;;;;;20.30;102721.00;;;;2079819;28;20229;-69
2023/12/16 04:57:48;;;;;;;4.10;2.27;;;;;20.30;102720.00;;;;2078295;28;20252;-69